Melbourne International Airport
KMLB : now visible

Aeroporto :











RITROVATECI SU...

 
LOGIN :

Iscrizione | Disclaimer

   EN    FR    IT 

 









Sommario :    VFR   VFR Marginale   IFR   IFR Intensivo   IFR Molto Intensivo
Visibilità : 
Base nubi : 
>= 8 km
>= 3000ft
5 / 8 km
1000 / 3000 ft
1500m / 5 km
500 / 1000 ft
800 / 1500m
200 / 500 ft
< 800m
< 200 ft
Simboli :   Temporali  Nebbia  Neve Forte  Precipitazioni Forti  Vento > 20 kt






- Altitudine del aeroporto : 33 ft
- Codice IATA : MLB


KMLB - Melbourne International

ULTIMO METAR :
  • 081253Z 25009KT 10SM CLR 28/24 A3001 RMK AO2 SLP162 T02780244

METARs OBSOLETI :
  • 081153Z 24005KT 10SM CLR 26/24 A3001 RMK AO2 SLP160 70015 T02560244 10256 20239 53010
  • 081053Z 24005KT 10SM CLR 24/23 A3000 RMK AO2 SLP157 T02440233

TAF KMLB
Valido dal 08 a 12 ore il 09 a 12 ore UTC


081123Z 0812/0912 21005KT P6SM SCT250
FM081500 25008KT P6SM SCT030 SCT250
FM081800 24010KT P6SM VCTS SCT035CB BKN060
TEMPO 0819/0822 VRB15G25KT 2SM TSRA BKN025CB BKN050
FM082200 25007KT P6SM VCSH SCT035 SCT100 BKN250
FM090200 VRB05KT P6SM FEW035 BKN250
FIR KZMA / America del Nord



MetMap, La meteo Aeronautica in un colpo d'occhio ! - Copyright ORBIFLY Dicembre 2007 - Disclaimer

ORBIFLY MET'MAP TEAM :

Programmazione e sviluppo : Alexandra Zaïnal
Concezione : Baudouin d'Aumeries
Aiuto per la programmazione : Marc-Olivier Méhu
Supporto tecnico e logistico : Manuel Goepfert
Aiuto per la traduzione : Arnaldo La Scala

Contatto : metmap@orbifly.com




FONTI E CREDITI :

   NOAA       Earth
Advisory